Aeroporto :
LOGIN :

Iscrizione | Disclaimer

   EN    FR    IT 

 










Sommario :    VFR   VFR Marginale   IFR   IFR Intensivo   IFR Molto Intensivo
Visibilità : 
Base nubi : 
>= 8 km
>= 3000ft
5 / 8 km
1000 / 3000 ft
1500m / 5 km
500 / 1000 ft
800 / 1500m
200 / 500 ft
< 800m
< 200 ft
Simboli :   Temporali  Nebbia  Neve Forte  Precipitazioni Forti  Vento > 20 kt
SIGMETs :   Varie  Temporali  Ghiacco  Turbolenza  Onda orograficha  Ceneri Vulcaniche






- Altitudine del aeroporto : 299 ft
- Codice IATA : EDM


LFRI - La Roche Sur Yon - Les Ajoncs

ULTIMO METAR :
  • 222300Z AUTO 14011KT 9999 BKN007/// BKN045/// OVC056/// ///TCU 10/09 Q0984

METARs OBSOLETI :
  • 222230Z AUTO 15010KT 8000 RA BKN008/// BKN013/// OVC020/// ///CB 10/09 Q0984
  • 222200Z AUTO 14013KT 110V170 9999 BKN009/// OVC013/// ///CB 11/09 Q0984
  • 222130Z AUTO 14010KT 9999 SCT015/// BKN024/// OVC047/// ///TCU 11/09 Q0984
  • 222100Z AUTO 14011KT 9999 BKN034 OVC054 11/09 Q0984 TEMPO 13015G25KT 2000 SHRA BKN007 BKN015CB
  • 222030Z AUTO 14011KT 110V170 9999 BKN033 OVC043 10/08 Q0984 TEMPO 13015G25KT 2000 SHRA BKN007 BKN015CB
  • 222000Z AUTO 14012KT 9999 OVC035 10/08 Q0984 TEMPO 2000 SHRA BKN007 BKN015CB BECMG 13015G25KT

TAF TAF LFRI
Valido dal 22 a 18 ore il 23 a 18 ore UTC


221700Z 2218/2318 13015G25KT 9999 BKN025
BECMG 2222/2224 15010KT BKN012
TEMPO 2218/2303 2000 SHRA BKN007 BKN015CB
BECMG 2306/2309 08006KT
BECMG 2314/2316 30012KT
TEMPO 2306/2318 4000 -RA BKN004 SCT030TCU



MetMap, La meteo Aeronautica in un colpo d'occhio ! - Copyright ORBIFLY Dicembre 2007 - Disclaimer

ORBIFLY MET'MAP TEAM :

Programmazione e sviluppo : Alexandra Zaïnal
Concezione e sviluppo : Baudouin d'Aumeries
Co-Programmazione e sviluppo : Marc-Olivier Méhu
Supporto tecnico e logistico : Manuel Goepfert
Aiuto per la traduzione : Arnaldo La Scala

Contatto : metmap@orbifly.com




FONTI E CREDITI :

   NOAA